sensor_id;sensor_type;location;lat;lon;timestamp;temperature;humidity
63802;DHT22;49949;43.060;25.624;2023-12-04T00:00:45;2.10;99.90
63802;DHT22;49949;43.060;25.624;2023-12-04T00:03:11;2.10;99.90
63802;DHT22;49949;43.060;25.624;2023-12-04T00:05:37;2.20;99.90
63802;DHT22;49949;43.060;25.624;2023-12-04T00:08:03;2.20;99.90
63802;DHT22;49949;43.060;25.624;2023-12-04T00:10:28;2.20;99.90
63802;DHT22;49949;43.060;25.624;2023-12-04T00:12:54;2.20;99.90
63802;DHT22;49949;43.060;25.624;2023-12-04T00:15:20;2.30;99.90
63802;DHT22;49949;43.060;25.624;2023-12-04T00:17:47;2.30;99.90
63802;DHT22;49949;43.060;25.624;2023-12-04T00:20:12;2.20;99.90
63802;DHT22;49949;43.060;25.624;2023-12-04T00:22:38;2.20;99.90
63802;DHT22;49949;43.060;25.624;2023-12-04T00:25:05;2.20;99.90
63802;DHT22;49949;43.060;25.624;2023-12-04T00:27:32;2.20;99.90
63802;DHT22;49949;43.060;25.624;2023-12-04T00:29:57;2.20;99.90
63802;DHT22;49949;43.060;25.624;2023-12-04T00:32:24;2.20;99.90
63802;DHT22;49949;43.060;25.624;2023-12-04T00:34:49;2.20;99.90
63802;DHT22;49949;43.060;25.624;2023-12-04T00:37:15;2.20;99.90
63802;DHT22;49949;43.060;25.624;2023-12-04T00:39:41;2.20;99.90
63802;DHT22;49949;43.060;25.624;2023-12-04T00:42:06;2.20;99.90
63802;DHT22;49949;43.060;25.624;2023-12-04T00:44:32;2.30;99.90
63802;DHT22;49949;43.060;25.624;2023-12-04T00:46:58;2.30;99.90
63802;DHT22;49949;43.060;25.624;2023-12-04T00:49:24;2.30;99.90
63802;DHT22;49949;43.060;25.624;2023-12-04T00:51:50;2.40;99.90
63802;DHT22;49949;43.060;25.624;2023-12-04T00:54:15;2.40;99.90
63802;DHT22;49949;43.060;25.624;2023-12-04T00:56:41;2.40;99.90
63802;DHT22;49949;43.060;25.624;2023-12-04T00:59:10;2.40;99.90
63802;DHT22;49949;43.060;25.624;2023-12-04T01:01:37;2.40;99.90
63802;DHT22;49949;43.060;25.624;2023-12-04T01:04:03;2.30;99.90
63802;DHT22;49949;43.060;25.624;2023-12-04T01:06:29;2.30;99.90
63802;DHT22;49949;43.060;25.624;2023-12-04T01:08:55;2.40;99.90
63802;DHT22;49949;43.060;25.624;2023-12-04T01:11:21;2.40;99.90
63802;DHT22;49949;43.060;25.624;2023-12-04T01:13:47;2.30;99.90
63802;DHT22;49949;43.060;25.624;2023-12-04T01:16:14;2.40;99.90
63802;DHT22;49949;43.060;25.624;2023-12-04T01:18:40;2.30;99.90
63802;DHT22;49949;43.060;25.624;2023-12-04T01:21:07;2.30;99.90
63802;DHT22;49949;43.060;25.624;2023-12-04T01:23:34;2.30;99.90
63802;DHT22;49949;43.060;25.624;2023-12-04T01:26:00;2.20;99.90
63802;DHT22;49949;43.060;25.624;2023-12-04T01:28:26;2.20;99.90
63802;DHT22;49949;43.060;25.624;2023-12-04T01:30:52;2.20;99.90
63802;DHT22;49949;43.060;25.624;2023-12-04T01:33:17;2.20;99.90
63802;DHT22;49949;43.060;25.624;2023-12-04T01:35:43;2.20;99.90
63802;DHT22;49949;43.060;25.624;2023-12-04T01:38:09;2.10;99.90
63802;DHT22;49949;43.060;25.624;2023-12-04T01:40:35;2.10;99.90
63802;DHT22;49949;43.060;25.624;2023-12-04T01:43:01;2.10;99.90
63802;DHT22;49949;43.060;25.624;2023-12-04T01:45:26;2.10;99.90
63802;DHT22;49949;43.060;25.624;2023-12-04T01:47:52;2.10;99.90
63802;DHT22;49949;43.060;25.624;2023-12-04T01:50:18;2.10;99.90
63802;DHT22;49949;43.060;25.624;2023-12-04T01:52:44;2.10;99.90
63802;DHT22;49949;43.060;25.624;2023-12-04T01:55:10;2.10;99.90
63802;DHT22;49949;43.060;25.624;2023-12-04T01:57:36;2.10;99.90
63802;DHT22;49949;43.060;25.624;2023-12-04T02:00:02;2.10;99.90
63802;DHT22;49949;43.060;25.624;2023-12-04T02:02:29;2.10;99.90
63802;DHT22;49949;43.060;25.624;2023-12-04T02:04:55;2.10;99.90
63802;DHT22;49949;43.060;25.624;2023-12-04T02:07:23;2.10;99.90
63802;DHT22;49949;43.060;25.624;2023-12-04T02:09:49;2.00;99.90
63802;DHT22;49949;43.060;25.624;2023-12-04T02:12:15;1.90;99.90
63802;DHT22;49949;43.060;25.624;2023-12-04T02:14:41;1.90;99.90
63802;DHT22;49949;43.060;25.624;2023-12-04T02:17:08;1.90;99.90
63802;DHT22;49949;43.060;25.624;2023-12-04T02:19:36;1.90;99.90
63802;DHT22;49949;43.060;25.624;2023-12-04T02:22:02;1.90;99.90
63802;DHT22;49949;43.060;25.624;2023-12-04T02:24:28;1.90;99.90
63802;DHT22;49949;43.060;25.624;2023-12-04T02:27:01;1.80;99.90
63802;DHT22;49949;43.060;25.624;2023-12-04T02:29:41;1.80;99.90
63802;DHT22;49949;43.060;25.624;2023-12-04T02:32:11;1.80;99.90
63802;DHT22;49949;43.060;25.624;2023-12-04T02:34:41;1.80;99.90
63802;DHT22;49949;43.060;25.624;2023-12-04T02:37:08;1.70;99.90
63802;DHT22;49949;43.060;25.624;2023-12-04T02:39:35;1.70;99.90
63802;DHT22;49949;43.060;25.624;2023-12-04T02:42:02;1.70;99.90
63802;DHT22;49949;43.060;25.624;2023-12-04T02:44:28;1.60;99.90
63802;DHT22;49949;43.060;25.624;2023-12-04T02:46:54;1.60;99.90
63802;DHT22;49949;43.060;25.624;2023-12-04T02:49:19;1.60;99.90
63802;DHT22;49949;43.060;25.624;2023-12-04T02:51:45;1.70;99.90
63802;DHT22;49949;43.060;25.624;2023-12-04T02:54:11;1.70;99.90
63802;DHT22;49949;43.060;25.624;2023-12-04T02:56:36;1.60;99.90
63802;DHT22;49949;43.060;25.624;2023-12-04T02:59:02;1.60;99.90
63802;DHT22;49949;43.060;25.624;2023-12-04T03:01:28;1.60;99.90
63802;DHT22;49949;43.060;25.624;2023-12-04T03:03:53;1.60;99.90
63802;DHT22;49949;43.060;25.624;2023-12-04T03:06:19;1.60;99.90
63802;DHT22;49949;43.060;25.624;2023-12-04T03:08:45;1.60;99.90
63802;DHT22;49949;43.060;25.624;2023-12-04T03:11:10;1.50;99.90
63802;DHT22;49949;43.060;25.624;2023-12-04T03:13:36;1.50;99.90
63802;DHT22;49949;43.060;25.624;2023-12-04T03:16:02;1.50;99.90
63802;DHT22;49949;43.060;25.624;2023-12-04T03:18:27;1.50;99.90
63802;DHT22;49949;43.060;25.624;2023-12-04T03:20:54;1.50;99.90
63802;DHT22;49949;43.060;25.624;2023-12-04T03:23:20;1.50;99.90
63802;DHT22;49949;43.060;25.624;2023-12-04T03:25:45;1.40;99.90
63802;DHT22;49949;43.060;25.624;2023-12-04T03:28:11;1.50;99.90
63802;DHT22;49949;43.060;25.624;2023-12-04T03:30:38;1.50;99.90
63802;DHT22;49949;43.060;25.624;2023-12-04T03:33:04;1.50;99.90
63802;DHT22;49949;43.060;25.624;2023-12-04T03:35:30;1.50;99.90
63802;DHT22;49949;43.060;25.624;2023-12-04T03:37:55;1.50;99.90
63802;DHT22;49949;43.060;25.624;2023-12-04T03:40:21;1.40;99.90
63802;DHT22;49949;43.060;25.624;2023-12-04T03:42:47;1.40;99.90
63802;DHT22;49949;43.060;25.624;2023-12-04T03:45:12;1.30;99.90
63802;DHT22;49949;43.060;25.624;2023-12-04T03:47:38;1.30;99.90
63802;DHT22;49949;43.060;25.624;2023-12-04T03:50:05;1.30;99.90
63802;DHT22;49949;43.060;25.624;2023-12-04T03:52:30;1.20;99.90
63802;DHT22;49949;43.060;25.624;2023-12-04T03:54:56;1.20;99.90
63802;DHT22;49949;43.060;25.624;2023-12-04T03:57:22;1.10;99.90
63802;DHT22;49949;43.060;25.624;2023-12-04T03:59:47;1.10;99.90
63802;DHT22;49949;43.060;25.624;2023-12-04T04:02:13;1.00;99.90
63802;DHT22;49949;43.060;25.624;2023-12-04T04:04:39;1.00;99.90
63802;DHT22;49949;43.060;25.624;2023-12-04T04:07:04;0.90;99.90
63802;DHT22;49949;43.060;25.624;2023-12-04T04:09:31;0.90;99.90
63802;DHT22;49949;43.060;25.624;2023-12-04T04:11:56;0.90;99.90
63802;DHT22;49949;43.060;25.624;2023-12-04T04:14:22;0.80;99.90
63802;DHT22;49949;43.060;25.624;2023-12-04T04:16:48;0.70;99.90
63802;DHT22;49949;43.060;25.624;2023-12-04T04:19:14;0.70;99.90
63802;DHT22;49949;43.060;25.624;2023-12-04T04:21:40;0.60;99.90
63802;DHT22;49949;43.060;25.624;2023-12-04T04:24:06;0.60;99.90
63802;DHT22;49949;43.060;25.624;2023-12-04T04:26:32;0.50;99.90
63802;DHT22;49949;43.060;25.624;2023-12-04T04:28:58;0.50;99.90
63802;DHT22;49949;43.060;25.624;2023-12-04T04:31:24;0.40;99.90
63802;DHT22;49949;43.060;25.624;2023-12-04T04:33:50;0.40;99.90
63802;DHT22;49949;43.060;25.624;2023-12-04T04:36:15;0.40;99.90
63802;DHT22;49949;43.060;25.624;2023-12-04T04:38:41;0.30;99.90
63802;DHT22;49949;43.060;25.624;2023-12-04T04:41:07;0.30;99.90
63802;DHT22;49949;43.060;25.624;2023-12-04T04:43:38;0.30;99.90
63802;DHT22;49949;43.060;25.624;2023-12-04T04:46:04;0.30;99.90
63802;DHT22;49949;43.060;25.624;2023-12-04T04:48:29;0.20;99.90
63802;DHT22;49949;43.060;25.624;2023-12-04T04:50:55;0.20;99.90
63802;DHT22;49949;43.060;25.624;2023-12-04T04:53:20;0.20;99.90
63802;DHT22;49949;43.060;25.624;2023-12-04T04:55:46;0.20;99.90
63802;DHT22;49949;43.060;25.624;2023-12-04T04:58:12;0.10;99.90
63802;DHT22;49949;43.060;25.624;2023-12-04T05:00:38;0.00;99.90
63802;DHT22;49949;43.060;25.624;2023-12-04T05:03:04;0.10;99.90
63802;DHT22;49949;43.060;25.624;2023-12-04T05:05:29;0.10;99.90
63802;DHT22;49949;43.060;25.624;2023-12-04T05:07:55;0.10;99.90
63802;DHT22;49949;43.060;25.624;2023-12-04T05:10:20;0.00;99.90
63802;DHT22;49949;43.060;25.624;2023-12-04T05:12:46;0.10;99.90
63802;DHT22;49949;43.060;25.624;2023-12-04T05:15:12;0.00;99.90
63802;DHT22;49949;43.060;25.624;2023-12-04T05:17:37;0.00;99.90
63802;DHT22;49949;43.060;25.624;2023-12-04T05:20:03;0.00;99.90
63802;DHT22;49949;43.060;25.624;2023-12-04T05:22:29;0.00;99.90
63802;DHT22;49949;43.060;25.624;2023-12-04T05:24:55;-0.10;99.90
63802;DHT22;49949;43.060;25.624;2023-12-04T05:27:21;-0.10;99.90
63802;DHT22;49949;43.060;25.624;2023-12-04T05:29:46;-0.10;99.90
63802;DHT22;49949;43.060;25.624;2023-12-04T05:32:12;-0.20;99.90
63802;DHT22;49949;43.060;25.624;2023-12-04T05:34:38;-0.20;99.90
63802;DHT22;49949;43.060;25.624;2023-12-04T05:37:04;-0.20;99.90
63802;DHT22;49949;43.060;25.624;2023-12-04T05:39:30;-0.20;99.90
63802;DHT22;49949;43.060;25.624;2023-12-04T05:41:55;-0.20;99.90
63802;DHT22;49949;43.060;25.624;2023-12-04T05:44:21;-0.20;99.90
63802;DHT22;49949;43.060;25.624;2023-12-04T05:46:47;-0.20;99.90
63802;DHT22;49949;43.060;25.624;2023-12-04T05:49:12;-0.10;99.90
63802;DHT22;49949;43.060;25.624;2023-12-04T05:51:38;-0.10;99.90
63802;DHT22;49949;43.060;25.624;2023-12-04T05:54:03;-0.10;99.90
63802;DHT22;49949;43.060;25.624;2023-12-04T05:56:29;-0.10;99.90
63802;DHT22;49949;43.060;25.624;2023-12-04T05:58:55;-0.20;99.90
63802;DHT22;49949;43.060;25.624;2023-12-04T06:01:21;-0.20;99.90
63802;DHT22;49949;43.060;25.624;2023-12-04T06:03:47;-0.30;99.90
63802;DHT22;49949;43.060;25.624;2023-12-04T06:06:12;-0.20;99.90
63802;DHT22;49949;43.060;25.624;2023-12-04T06:08:38;-0.10;99.90
63802;DHT22;49949;43.060;25.624;2023-12-04T06:11:04;-0.10;99.90
63802;DHT22;49949;43.060;25.624;2023-12-04T06:13:30;-0.10;99.90
63802;DHT22;49949;43.060;25.624;2023-12-04T06:15:55;0.00;99.90
63802;DHT22;49949;43.060;25.624;2023-12-04T06:18:21;0.00;99.90
63802;DHT22;49949;43.060;25.624;2023-12-04T06:20:47;0.00;99.90
63802;DHT22;49949;43.060;25.624;2023-12-04T06:23:13;0.10;99.90
63802;DHT22;49949;43.060;25.624;2023-12-04T06:25:38;0.10;99.90
63802;DHT22;49949;43.060;25.624;2023-12-04T06:28:05;0.10;99.90
63802;DHT22;49949;43.060;25.624;2023-12-04T06:30:31;0.20;99.90
63802;DHT22;49949;43.060;25.624;2023-12-04T06:32:57;0.20;99.90
63802;DHT22;49949;43.060;25.624;2023-12-04T06:35:23;0.10;99.90
63802;DHT22;49949;43.060;25.624;2023-12-04T06:37:49;0.10;99.90
63802;DHT22;49949;43.060;25.624;2023-12-04T06:40:19;0.10;99.90
63802;DHT22;49949;43.060;25.624;2023-12-04T06:42:45;0.10;99.90
63802;DHT22;49949;43.060;25.624;2023-12-04T06:45:11;0.20;99.90
63802;DHT22;49949;43.060;25.624;2023-12-04T06:47:37;0.10;99.90
63802;DHT22;49949;43.060;25.624;2023-12-04T06:50:05;0.10;99.90
63802;DHT22;49949;43.060;25.624;2023-12-04T06:52:31;0.20;99.90
63802;DHT22;49949;43.060;25.624;2023-12-04T06:54:57;0.20;99.90
63802;DHT22;49949;43.060;25.624;2023-12-04T06:57:22;0.20;99.90
63802;DHT22;49949;43.060;25.624;2023-12-04T06:59:48;0.30;99.90
63802;DHT22;49949;43.060;25.624;2023-12-04T07:02:14;0.30;99.90
63802;DHT22;49949;43.060;25.624;2023-12-04T07:04:39;0.20;99.90
63802;DHT22;49949;43.060;25.624;2023-12-04T07:07:05;0.30;99.90
63802;DHT22;49949;43.060;25.624;2023-12-04T07:09:32;0.30;99.90
63802;DHT22;49949;43.060;25.624;2023-12-04T07:11:58;0.40;99.90
63802;DHT22;49949;43.060;25.624;2023-12-04T07:14:24;0.40;99.90
63802;DHT22;49949;43.060;25.624;2023-12-04T07:16:50;0.40;99.90
63802;DHT22;49949;43.060;25.624;2023-12-04T07:19:16;0.40;99.90
63802;DHT22;49949;43.060;25.624;2023-12-04T07:21:42;0.40;99.90
63802;DHT22;49949;43.060;25.624;2023-12-04T07:24:08;0.30;99.90
63802;DHT22;49949;43.060;25.624;2023-12-04T07:26:34;0.40;99.90
63802;DHT22;49949;43.060;25.624;2023-12-04T07:29:01;0.40;99.90
63802;DHT22;49949;43.060;25.624;2023-12-04T07:31:26;0.30;99.90
63802;DHT22;49949;43.060;25.624;2023-12-04T07:33:53;0.40;99.90
63802;DHT22;49949;43.060;25.624;2023-12-04T07:36:19;0.50;99.90
63802;DHT22;49949;43.060;25.624;2023-12-04T07:38:45;0.50;99.90
63802;DHT22;49949;43.060;25.624;2023-12-04T07:41:11;0.60;99.90
63802;DHT22;49949;43.060;25.624;2023-12-04T07:43:36;0.60;99.90
63802;DHT22;49949;43.060;25.624;2023-12-04T07:46:03;0.60;99.90
63802;DHT22;49949;43.060;25.624;2023-12-04T07:48:30;0.70;99.90
63802;DHT22;49949;43.060;25.624;2023-12-04T07:50:55;0.70;99.90
63802;DHT22;49949;43.060;25.624;2023-12-04T07:53:21;0.70;99.90
63802;DHT22;49949;43.060;25.624;2023-12-04T07:55:48;0.70;99.90
63802;DHT22;49949;43.060;25.624;2023-12-04T07:58:17;0.80;99.90
63802;DHT22;49949;43.060;25.624;2023-12-04T08:00:45;0.80;99.90
63802;DHT22;49949;43.060;25.624;2023-12-04T08:03:11;0.70;99.90
63802;DHT22;49949;43.060;25.624;2023-12-04T08:05:37;0.90;99.90
63802;DHT22;49949;43.060;25.624;2023-12-04T08:08:03;0.90;99.90
63802;DHT22;49949;43.060;25.624;2023-12-04T08:10:29;1.00;99.90
63802;DHT22;49949;43.060;25.624;2023-12-04T08:12:55;1.00;99.90
63802;DHT22;49949;43.060;25.624;2023-12-04T08:15:21;1.00;99.90
63802;DHT22;49949;43.060;25.624;2023-12-04T08:17:46;1.00;99.90
63802;DHT22;49949;43.060;25.624;2023-12-04T08:20:12;1.00;99.90
63802;DHT22;49949;43.060;25.624;2023-12-04T08:22:40;1.10;99.90
63802;DHT22;49949;43.060;25.624;2023-12-04T08:25:07;1.10;99.90
63802;DHT22;49949;43.060;25.624;2023-12-04T08:27:33;1.30;99.90
63802;DHT22;49949;43.060;25.624;2023-12-04T08:29:58;1.40;99.90
63802;DHT22;49949;43.060;25.624;2023-12-04T08:32:24;1.50;99.90
63802;DHT22;49949;43.060;25.624;2023-12-04T08:34:52;1.60;99.90
63802;DHT22;49949;43.060;25.624;2023-12-04T08:37:18;1.70;99.90
63802;DHT22;49949;43.060;25.624;2023-12-04T08:39:44;1.80;99.90
63802;DHT22;49949;43.060;25.624;2023-12-04T08:42:11;1.90;99.90
63802;DHT22;49949;43.060;25.624;2023-12-04T08:44:37;2.00;99.90
63802;DHT22;49949;43.060;25.624;2023-12-04T08:47:04;2.20;99.90
63802;DHT22;49949;43.060;25.624;2023-12-04T08:49:29;2.30;99.90
63802;DHT22;49949;43.060;25.624;2023-12-04T08:51:55;2.50;99.90
63802;DHT22;49949;43.060;25.624;2023-12-04T08:54:21;2.90;99.90
63802;DHT22;49949;43.060;25.624;2023-12-04T08:56:47;3.30;99.90
63802;DHT22;49949;43.060;25.624;2023-12-04T08:59:12;3.40;99.90
63802;DHT22;49949;43.060;25.624;2023-12-04T09:01:38;3.70;99.90
63802;DHT22;49949;43.060;25.624;2023-12-04T09:04:04;4.40;99.90
63802;DHT22;49949;43.060;25.624;2023-12-04T09:06:30;5.50;99.90
63802;DHT22;49949;43.060;25.624;2023-12-04T09:08:56;6.00;99.90
63802;DHT22;49949;43.060;25.624;2023-12-04T09:11:21;7.30;99.90
63802;DHT22;49949;43.060;25.624;2023-12-04T09:13:47;8.30;99.90
63802;DHT22;49949;43.060;25.624;2023-12-04T09:16:13;9.20;99.90
63802;DHT22;49949;43.060;25.624;2023-12-04T09:18:39;10.20;99.90
63802;DHT22;49949;43.060;25.624;2023-12-04T09:21:05;11.20;92.30
63802;DHT22;49949;43.060;25.624;2023-12-04T09:23:31;12.20;92.60
63802;DHT22;49949;43.060;25.624;2023-12-04T09:25:56;12.80;81.10
63802;DHT22;49949;43.060;25.624;2023-12-04T09:28:22;12.70;78.70
63802;DHT22;49949;43.060;25.624;2023-12-04T09:30:48;12.00;76.70
63802;DHT22;49949;43.060;25.624;2023-12-04T09:33:14;11.20;77.90
63802;DHT22;49949;43.060;25.624;2023-12-04T09:35:39;10.70;76.10
63802;DHT22;49949;43.060;25.624;2023-12-04T09:38:05;9.70;87.00
63802;DHT22;49949;43.060;25.624;2023-12-04T09:40:31;8.60;90.40
63802;DHT22;49949;43.060;25.624;2023-12-04T09:42:57;7.80;94.10
63802;DHT22;49949;43.060;25.624;2023-12-04T09:45:24;7.00;99.50
63802;DHT22;49949;43.060;25.624;2023-12-04T09:47:50;6.60;99.90
63802;DHT22;49949;43.060;25.624;2023-12-04T09:50:16;6.10;99.90
63802;DHT22;49949;43.060;25.624;2023-12-04T09:52:49;5.80;99.90
63802;DHT22;49949;43.060;25.624;2023-12-04T09:55:16;5.60;99.90
63802;DHT22;49949;43.060;25.624;2023-12-04T09:57:44;5.40;99.90
63802;DHT22;49949;43.060;25.624;2023-12-04T10:00:11;5.30;99.90
63802;DHT22;49949;43.060;25.624;2023-12-04T10:02:39;5.20;99.90
63802;DHT22;49949;43.060;25.624;2023-12-04T10:05:05;5.00;99.90
63802;DHT22;49949;43.060;25.624;2023-12-04T10:07:31;5.00;99.90
63802;DHT22;49949;43.060;25.624;2023-12-04T10:09:57;4.80;99.90
63802;DHT22;49949;43.060;25.624;2023-12-04T10:12:22;4.80;99.90
63802;DHT22;49949;43.060;25.624;2023-12-04T10:15:07;4.70;99.90
63802;DHT22;49949;43.060;25.624;2023-12-04T10:17:35;4.60;99.90
63802;DHT22;49949;43.060;25.624;2023-12-04T10:20:13;4.60;99.90
63802;DHT22;49949;43.060;25.624;2023-12-04T10:22:58;4.60;99.90
63802;DHT22;49949;43.060;25.624;2023-12-04T10:25:26;4.60;99.90
63802;DHT22;49949;43.060;25.624;2023-12-04T10:27:54;4.60;99.90
63802;DHT22;49949;43.060;25.624;2023-12-04T10:30:26;4.60;99.90
63802;DHT22;49949;43.060;25.624;2023-12-04T10:32:57;4.60;99.90
63802;DHT22;49949;43.060;25.624;2023-12-04T10:35:29;4.70;99.90
63802;DHT22;49949;43.060;25.624;2023-12-04T10:37:56;4.70;99.90
63802;DHT22;49949;43.060;25.624;2023-12-04T10:40:25;4.80;99.90
63802;DHT22;49949;43.060;25.624;2023-12-04T10:43:16;4.90;99.90
63802;DHT22;49949;43.060;25.624;2023-12-04T10:45:43;4.90;98.90
63802;DHT22;49949;43.060;25.624;2023-12-04T10:48:11;4.80;99.30
63802;DHT22;49949;43.060;25.624;2023-12-04T10:50:39;4.70;99.10
63802;DHT22;49949;43.060;25.624;2023-12-04T10:53:08;4.80;99.90
63802;DHT22;49949;43.060;25.624;2023-12-04T10:55:35;4.80;99.90
63802;DHT22;49949;43.060;25.624;2023-12-04T10:58:12;4.90;99.90
63802;DHT22;49949;43.060;25.624;2023-12-04T11:00:40;4.90;99.90
63802;DHT22;49949;43.060;25.624;2023-12-04T11:03:10;4.90;99.90
63802;DHT22;49949;43.060;25.624;2023-12-04T11:05:39;5.00;99.90
63802;DHT22;49949;43.060;25.624;2023-12-04T11:08:15;5.00;99.90
63802;DHT22;49949;43.060;25.624;2023-12-04T11:13:27;5.10;99.90
63802;DHT22;49949;43.060;25.624;2023-12-04T11:15:59;5.10;99.90
63802;DHT22;49949;43.060;25.624;2023-12-04T11:18:27;5.10;99.90
63802;DHT22;49949;43.060;25.624;2023-12-04T11:21:02;5.20;99.90
63802;DHT22;49949;43.060;25.624;2023-12-04T11:23:30;5.20;99.90
63802;DHT22;49949;43.060;25.624;2023-12-04T11:25:57;5.20;99.90
63802;DHT22;49949;43.060;25.624;2023-12-04T11:28:24;5.20;99.90
63802;DHT22;49949;43.060;25.624;2023-12-04T11:30:51;5.20;99.90
63802;DHT22;49949;43.060;25.624;2023-12-04T11:33:18;5.20;99.90
63802;DHT22;49949;43.060;25.624;2023-12-04T11:35:44;5.20;99.90
63802;DHT22;49949;43.060;25.624;2023-12-04T11:38:13;5.30;99.90
63802;DHT22;49949;43.060;25.624;2023-12-04T11:40:40;5.30;99.90
63802;DHT22;49949;43.060;25.624;2023-12-04T11:43:27;5.30;99.90
63802;DHT22;49949;43.060;25.624;2023-12-04T11:46:10;5.30;99.90
63802;DHT22;49949;43.060;25.624;2023-12-04T11:48:39;5.40;99.90
63802;DHT22;49949;43.060;25.624;2023-12-04T11:51:08;5.30;99.90
63802;DHT22;49949;43.060;25.624;2023-12-04T11:53:40;5.40;99.90
63802;DHT22;49949;43.060;25.624;2023-12-04T11:56:13;5.40;99.90
63802;DHT22;49949;43.060;25.624;2023-12-04T11:58:43;5.40;99.90
63802;DHT22;49949;43.060;25.624;2023-12-04T12:01:09;5.40;99.90
63802;DHT22;49949;43.060;25.624;2023-12-04T12:03:34;5.40;99.90
63802;DHT22;49949;43.060;25.624;2023-12-04T12:06:00;5.40;99.90
63802;DHT22;49949;43.060;25.624;2023-12-04T12:08:28;5.40;99.90
63802;DHT22;49949;43.060;25.624;2023-12-04T12:10:54;5.50;99.90
63802;DHT22;49949;43.060;25.624;2023-12-04T12:13:21;5.50;99.90
63802;DHT22;49949;43.060;25.624;2023-12-04T12:15:47;5.50;99.90
63802;DHT22;49949;43.060;25.624;2023-12-04T12:18:16;5.50;99.90
63802;DHT22;49949;43.060;25.624;2023-12-04T12:20:41;5.50;99.90
63802;DHT22;49949;43.060;25.624;2023-12-04T12:23:07;5.50;99.90
63802;DHT22;49949;43.060;25.624;2023-12-04T12:25:34;5.50;99.90
63802;DHT22;49949;43.060;25.624;2023-12-04T12:28:04;5.50;99.90
63802;DHT22;49949;43.060;25.624;2023-12-04T12:30:30;5.50;99.90
63802;DHT22;49949;43.060;25.624;2023-12-04T12:32:56;5.40;99.90
63802;DHT22;49949;43.060;25.624;2023-12-04T12:35:22;5.40;99.90
63802;DHT22;49949;43.060;25.624;2023-12-04T12:37:49;5.40;99.90
63802;DHT22;49949;43.060;25.624;2023-12-04T12:40:20;5.40;99.90
63802;DHT22;49949;43.060;25.624;2023-12-04T12:42:46;5.40;99.90
63802;DHT22;49949;43.060;25.624;2023-12-04T12:45:12;5.30;99.90
63802;DHT22;49949;43.060;25.624;2023-12-04T12:47:40;5.30;99.90
63802;DHT22;49949;43.060;25.624;2023-12-04T12:50:08;5.30;99.90
63802;DHT22;49949;43.060;25.624;2023-12-04T12:52:36;5.20;99.90
63802;DHT22;49949;43.060;25.624;2023-12-04T12:55:02;5.20;99.90
63802;DHT22;49949;43.060;25.624;2023-12-04T12:57:30;5.20;99.90
63802;DHT22;49949;43.060;25.624;2023-12-04T12:59:55;5.30;99.90
63802;DHT22;49949;43.060;25.624;2023-12-04T13:02:21;5.20;99.90
63802;DHT22;49949;43.060;25.624;2023-12-04T13:04:47;5.20;99.90
63802;DHT22;49949;43.060;25.624;2023-12-04T13:07:13;5.20;99.90
63802;DHT22;49949;43.060;25.624;2023-12-04T13:09:38;5.20;99.90
63802;DHT22;49949;43.060;25.624;2023-12-04T13:12:05;5.10;99.90
63802;DHT22;49949;43.060;25.624;2023-12-04T13:14:33;5.00;99.90
63802;DHT22;49949;43.060;25.624;2023-12-04T13:17:00;5.00;99.90
63802;DHT22;49949;43.060;25.624;2023-12-04T13:19:27;4.90;99.90
63802;DHT22;49949;43.060;25.624;2023-12-04T13:21:52;5.00;99.90
63802;DHT22;49949;43.060;25.624;2023-12-04T13:24:18;4.90;99.90
63802;DHT22;49949;43.060;25.624;2023-12-04T13:26:44;4.90;99.90
63802;DHT22;49949;43.060;25.624;2023-12-04T13:29:11;4.80;99.90
63802;DHT22;49949;43.060;25.624;2023-12-04T13:31:37;4.60;99.90
63802;DHT22;49949;43.060;25.624;2023-12-04T13:34:03;4.60;99.90
63802;DHT22;49949;43.060;25.624;2023-12-04T13:36:34;4.40;99.90
63802;DHT22;49949;43.060;25.624;2023-12-04T13:39:02;4.30;99.90
63802;DHT22;49949;43.060;25.624;2023-12-04T13:41:30;4.20;99.90
63802;DHT22;49949;43.060;25.624;2023-12-04T13:44:14;4.10;99.90
63802;DHT22;49949;43.060;25.624;2023-12-04T13:46:41;4.00;99.90
63802;DHT22;49949;43.060;25.624;2023-12-04T13:49:06;3.90;99.90
63802;DHT22;49949;43.060;25.624;2023-12-04T13:51:32;3.80;99.90
63802;DHT22;49949;43.060;25.624;2023-12-04T13:53:59;3.70;99.90
63802;DHT22;49949;43.060;25.624;2023-12-04T13:56:35;3.60;99.90
63802;DHT22;49949;43.060;25.624;2023-12-04T13:59:10;3.60;99.90
63802;DHT22;49949;43.060;25.624;2023-12-04T14:01:44;3.60;99.90
63802;DHT22;49949;43.060;25.624;2023-12-04T14:04:10;3.50;99.90
63802;DHT22;49949;43.060;25.624;2023-12-04T14:06:37;3.50;99.90
63802;DHT22;49949;43.060;25.624;2023-12-04T14:09:02;3.50;99.90
63802;DHT22;49949;43.060;25.624;2023-12-04T14:11:35;3.40;99.90
63802;DHT22;49949;43.060;25.624;2023-12-04T14:14:01;3.40;99.90
63802;DHT22;49949;43.060;25.624;2023-12-04T14:16:27;3.30;99.90
63802;DHT22;49949;43.060;25.624;2023-12-04T14:18:54;3.30;99.90
63802;DHT22;49949;43.060;25.624;2023-12-04T14:21:19;3.20;99.90
63802;DHT22;49949;43.060;25.624;2023-12-04T14:23:45;3.20;99.90
63802;DHT22;49949;43.060;25.624;2023-12-04T14:26:11;3.10;99.90
63802;DHT22;49949;43.060;25.624;2023-12-04T14:28:36;3.10;99.90
63802;DHT22;49949;43.060;25.624;2023-12-04T14:31:02;3.00;99.90
63802;DHT22;49949;43.060;25.624;2023-12-04T14:33:28;3.00;99.90
63802;DHT22;49949;43.060;25.624;2023-12-04T14:35:53;2.80;99.90
63802;DHT22;49949;43.060;25.624;2023-12-04T14:38:19;2.70;99.90
63802;DHT22;49949;43.060;25.624;2023-12-04T14:40:45;2.60;99.90
63802;DHT22;49949;43.060;25.624;2023-12-04T14:43:11;2.50;99.90
63802;DHT22;49949;43.060;25.624;2023-12-04T14:45:37;2.40;99.90
63802;DHT22;49949;43.060;25.624;2023-12-04T14:48:03;2.40;99.90
63802;DHT22;49949;43.060;25.624;2023-12-04T14:50:35;2.20;99.90
63802;DHT22;49949;43.060;25.624;2023-12-04T14:53:03;2.20;99.90
63802;DHT22;49949;43.060;25.624;2023-12-04T14:55:54;2.10;99.90
63802;DHT22;49949;43.060;25.624;2023-12-04T14:58:39;2.00;99.90
63802;DHT22;49949;43.060;25.624;2023-12-04T15:01:07;1.90;99.90
63802;DHT22;49949;43.060;25.624;2023-12-04T15:03:39;1.80;99.90
63802;DHT22;49949;43.060;25.624;2023-12-04T15:06:23;1.80;99.90
63802;DHT22;49949;43.060;25.624;2023-12-04T15:08:49;1.70;99.90
63802;DHT22;49949;43.060;25.624;2023-12-04T15:11:33;1.50;99.90
63802;DHT22;49949;43.060;25.624;2023-12-04T15:14:07;1.30;99.90
63802;DHT22;49949;43.060;25.624;2023-12-04T15:16:33;1.20;99.90
63802;DHT22;49949;43.060;25.624;2023-12-04T15:19:02;1.20;99.90
63802;DHT22;49949;43.060;25.624;2023-12-04T15:21:30;1.10;99.90
63802;DHT22;49949;43.060;25.624;2023-12-04T15:23:56;1.10;99.90
63802;DHT22;49949;43.060;25.624;2023-12-04T15:26:23;1.00;99.90
63802;DHT22;49949;43.060;25.624;2023-12-04T15:28:49;0.90;99.90
63802;DHT22;49949;43.060;25.624;2023-12-04T15:31:14;0.90;99.90